Weather at Skopje International Airport

Public forecast

Using degrees Celsius for public forecast. Weather courtesy of forecast.io.

Current aviation weather report (METAR) for Skopje International Airport

2022/11/30 23:00 (retrieved 24 minutes ago)

LWSK 302300Z 00000KT 0700 R34/1100N DZ FG SCT001 BKN003 OVC020 06/05 Q1017 RERA TEMPO 0300 FG BKN003 OVC020

Aviation forecast (TAF) for Skopje International Airport

2022/11/30 21:31 (retrieved 2 hours ago)

TAF LWSK 302030Z 3021/0121 VRB02KT 3000 -RA BR SCT008 BKN030 OVC040 TEMPO 3021/0112 1200 RA SCT005 BKN020 OVC035